sensor_id;sensor_type;location;lat;lon;timestamp;temperature;humidity
7384;DHT22;3733;47.994;8.820;2023-02-01T00:01:43;2.00;99.90
7384;DHT22;3733;47.994;8.820;2023-02-01T00:04:09;2.00;99.90
7384;DHT22;3733;47.994;8.820;2023-02-01T00:06:34;2.00;99.90
7384;DHT22;3733;47.994;8.820;2023-02-01T00:09:00;1.90;99.90
7384;DHT22;3733;47.994;8.820;2023-02-01T00:11:26;1.90;99.90
7384;DHT22;3733;47.994;8.820;2023-02-01T00:13:52;1.90;99.90
7384;DHT22;3733;47.994;8.820;2023-02-01T00:16:26;2.00;99.90
7384;DHT22;3733;47.994;8.820;2023-02-01T00:19:03;1.90;99.90
7384;DHT22;3733;47.994;8.820;2023-02-01T00:21:30;1.90;99.90
7384;DHT22;3733;47.994;8.820;2023-02-01T00:23:56;1.90;99.90
7384;DHT22;3733;47.994;8.820;2023-02-01T00:26:32;1.90;99.90
7384;DHT22;3733;47.994;8.820;2023-02-01T00:28:58;1.90;99.90
7384;DHT22;3733;47.994;8.820;2023-02-01T00:31:24;1.90;99.90
7384;DHT22;3733;47.994;8.820;2023-02-01T00:33:50;1.90;99.90
7384;DHT22;3733;47.994;8.820;2023-02-01T00:36:16;1.80;99.90
7384;DHT22;3733;47.994;8.820;2023-02-01T00:38:42;1.80;99.90
7384;DHT22;3733;47.994;8.820;2023-02-01T00:43:37;1.80;99.90
7384;DHT22;3733;47.994;8.820;2023-02-01T00:46:03;1.80;99.90
7384;DHT22;3733;47.994;8.820;2023-02-01T00:48:29;1.80;99.90
7384;DHT22;3733;47.994;8.820;2023-02-01T00:50:59;1.80;99.90
7384;DHT22;3733;47.994;8.820;2023-02-01T00:53:25;1.80;99.90
7384;DHT22;3733;47.994;8.820;2023-02-01T00:55:51;1.80;99.90
7384;DHT22;3733;47.994;8.820;2023-02-01T00:58:16;1.90;99.90
7384;DHT22;3733;47.994;8.820;2023-02-01T01:00:42;1.90;99.90
7384;DHT22;3733;47.994;8.820;2023-02-01T01:03:08;1.90;99.90
7384;DHT22;3733;47.994;8.820;2023-02-01T01:05:47;1.90;99.90
7384;DHT22;3733;47.994;8.820;2023-02-01T01:08:13;1.90;99.90
7384;DHT22;3733;47.994;8.820;2023-02-01T01:10:40;2.00;99.90
7384;DHT22;3733;47.994;8.820;2023-02-01T01:13:06;2.10;99.90
7384;DHT22;3733;47.994;8.820;2023-02-01T01:15:36;2.10;99.90
7384;DHT22;3733;47.994;8.820;2023-02-01T01:18:01;2.20;99.90
7384;DHT22;3733;47.994;8.820;2023-02-01T01:20:27;2.20;99.90
7384;DHT22;3733;47.994;8.820;2023-02-01T01:22:52;2.30;99.90
7384;DHT22;3733;47.994;8.820;2023-02-01T01:25:18;2.30;99.90
7384;DHT22;3733;47.994;8.820;2023-02-01T01:27:44;2.40;99.90
7384;DHT22;3733;47.994;8.820;2023-02-01T01:30:10;2.40;99.90
7384;DHT22;3733;47.994;8.820;2023-02-01T01:32:35;2.40;99.90
7384;DHT22;3733;47.994;8.820;2023-02-01T01:35:01;2.50;99.90
7384;DHT22;3733;47.994;8.820;2023-02-01T01:37:26;2.40;99.90
7384;DHT22;3733;47.994;8.820;2023-02-01T01:39:52;2.50;99.90
7384;DHT22;3733;47.994;8.820;2023-02-01T01:42:18;2.50;99.90
7384;DHT22;3733;47.994;8.820;2023-02-01T01:47:43;2.40;99.90
7384;DHT22;3733;47.994;8.820;2023-02-01T01:50:12;2.40;99.90
7384;DHT22;3733;47.994;8.820;2023-02-01T01:52:40;2.40;99.90
7384;DHT22;3733;47.994;8.820;2023-02-01T01:55:07;2.40;99.90
7384;DHT22;3733;47.994;8.820;2023-02-01T01:57:37;2.40;99.90
7384;DHT22;3733;47.994;8.820;2023-02-01T02:00:15;2.40;99.90
7384;DHT22;3733;47.994;8.820;2023-02-01T02:02:44;2.30;99.90
7384;DHT22;3733;47.994;8.820;2023-02-01T02:05:11;2.30;99.90
7384;DHT22;3733;47.994;8.820;2023-02-01T02:07:42;2.30;99.90
7384;DHT22;3733;47.994;8.820;2023-02-01T02:10:11;2.30;99.90
7384;DHT22;3733;47.994;8.820;2023-02-01T02:12:39;2.30;99.90
7384;DHT22;3733;47.994;8.820;2023-02-01T02:15:07;2.30;99.90
7384;DHT22;3733;47.994;8.820;2023-02-01T02:26:34;2.20;99.90
7384;DHT22;3733;47.994;8.820;2023-02-01T02:29:21;2.20;99.90
7384;DHT22;3733;47.994;8.820;2023-02-01T02:34:49;2.20;99.90
7384;DHT22;3733;47.994;8.820;2023-02-01T02:40:45;2.10;99.90
7384;DHT22;3733;47.994;8.820;2023-02-01T02:43:23;2.10;99.90
7384;DHT22;3733;47.994;8.820;2023-02-01T02:46:47;2.20;99.90
7384;DHT22;3733;47.994;8.820;2023-02-01T02:52:38;2.10;99.90
7384;DHT22;3733;47.994;8.820;2023-02-01T02:55:26;2.10;99.90
7384;DHT22;3733;47.994;8.820;2023-02-01T02:57:52;2.20;99.90
7384;DHT22;3733;47.994;8.820;2023-02-01T03:00:37;2.20;99.90
7384;DHT22;3733;47.994;8.820;2023-02-01T03:03:21;2.20;99.90
7384;DHT22;3733;47.994;8.820;2023-02-01T03:06:16;2.20;99.90
7384;DHT22;3733;47.994;8.820;2023-02-01T03:08:43;2.20;99.90
7384;DHT22;3733;47.994;8.820;2023-02-01T03:11:13;2.20;99.90
7384;DHT22;3733;47.994;8.820;2023-02-01T03:14:00;2.20;99.90
7384;DHT22;3733;47.994;8.820;2023-02-01T03:16:58;2.20;99.90
7384;DHT22;3733;47.994;8.820;2023-02-01T03:19:35;2.20;99.90
7384;DHT22;3733;47.994;8.820;2023-02-01T03:22:08;2.10;99.90
7384;DHT22;3733;47.994;8.820;2023-02-01T03:24:42;2.20;99.90
7384;DHT22;3733;47.994;8.820;2023-02-01T03:29:45;2.20;99.90
7384;DHT22;3733;47.994;8.820;2023-02-01T03:32:14;2.30;99.90
7384;DHT22;3733;47.994;8.820;2023-02-01T03:34:40;2.30;99.90
7384;DHT22;3733;47.994;8.820;2023-02-01T03:37:09;2.30;99.90
7384;DHT22;3733;47.994;8.820;2023-02-01T03:39:46;2.30;99.90
7384;DHT22;3733;47.994;8.820;2023-02-01T03:42:19;2.30;99.90
7384;DHT22;3733;47.994;8.820;2023-02-01T03:45:05;2.30;99.90
7384;DHT22;3733;47.994;8.820;2023-02-01T03:47:43;2.30;99.90
7384;DHT22;3733;47.994;8.820;2023-02-01T03:50:13;2.30;99.90
7384;DHT22;3733;47.994;8.820;2023-02-01T03:52:44;2.30;99.90
7384;DHT22;3733;47.994;8.820;2023-02-01T03:55:11;2.30;99.90
7384;DHT22;3733;47.994;8.820;2023-02-01T03:57:53;2.30;99.90
7384;DHT22;3733;47.994;8.820;2023-02-01T04:00:23;2.30;99.90
7384;DHT22;3733;47.994;8.820;2023-02-01T04:02:49;2.30;99.90
7384;DHT22;3733;47.994;8.820;2023-02-01T04:05:15;2.30;99.90
7384;DHT22;3733;47.994;8.820;2023-02-01T04:07:42;2.30;99.90
7384;DHT22;3733;47.994;8.820;2023-02-01T04:10:09;2.30;99.90
7384;DHT22;3733;47.994;8.820;2023-02-01T04:12:35;2.30;99.90
7384;DHT22;3733;47.994;8.820;2023-02-01T04:15:00;2.30;99.90
7384;DHT22;3733;47.994;8.820;2023-02-01T04:17:26;2.30;99.90
7384;DHT22;3733;47.994;8.820;2023-02-01T04:19:52;2.30;99.90
7384;DHT22;3733;47.994;8.820;2023-02-01T04:22:17;2.40;99.90
7384;DHT22;3733;47.994;8.820;2023-02-01T04:24:43;2.40;99.90
7384;DHT22;3733;47.994;8.820;2023-02-01T04:27:09;2.40;99.90
7384;DHT22;3733;47.994;8.820;2023-02-01T04:29:34;2.30;99.90
7384;DHT22;3733;47.994;8.820;2023-02-01T04:32:00;2.40;99.90
7384;DHT22;3733;47.994;8.820;2023-02-01T04:34:25;2.40;99.90
7384;DHT22;3733;47.994;8.820;2023-02-01T04:36:51;2.40;99.90
7384;DHT22;3733;47.994;8.820;2023-02-01T04:39:17;2.40;99.90
7384;DHT22;3733;47.994;8.820;2023-02-01T04:41:43;2.40;99.90
7384;DHT22;3733;47.994;8.820;2023-02-01T04:44:18;2.30;99.90
7384;DHT22;3733;47.994;8.820;2023-02-01T04:46:45;2.40;99.90
7384;DHT22;3733;47.994;8.820;2023-02-01T04:49:12;2.30;99.90
7384;DHT22;3733;47.994;8.820;2023-02-01T04:51:38;2.30;99.90
7384;DHT22;3733;47.994;8.820;2023-02-01T04:54:04;2.30;99.90
7384;DHT22;3733;47.994;8.820;2023-02-01T04:56:30;2.30;99.90
7384;DHT22;3733;47.994;8.820;2023-02-01T04:58:55;2.30;99.90
7384;DHT22;3733;47.994;8.820;2023-02-01T05:01:22;2.40;99.90
7384;DHT22;3733;47.994;8.820;2023-02-01T05:03:48;2.40;99.90
7384;DHT22;3733;47.994;8.820;2023-02-01T05:06:13;2.40;99.90
7384;DHT22;3733;47.994;8.820;2023-02-01T05:08:39;2.40;99.90
7384;DHT22;3733;47.994;8.820;2023-02-01T05:11:05;2.50;99.90
7384;DHT22;3733;47.994;8.820;2023-02-01T05:13:31;2.40;99.90
7384;DHT22;3733;47.994;8.820;2023-02-01T05:16:15;2.50;99.90
7384;DHT22;3733;47.994;8.820;2023-02-01T05:18:41;2.50;99.90
7384;DHT22;3733;47.994;8.820;2023-02-01T05:21:07;2.50;99.90
7384;DHT22;3733;47.994;8.820;2023-02-01T05:23:32;2.50;99.90
7384;DHT22;3733;47.994;8.820;2023-02-01T05:26:18;2.50;99.90
7384;DHT22;3733;47.994;8.820;2023-02-01T05:28:44;2.50;99.90
7384;DHT22;3733;47.994;8.820;2023-02-01T05:31:10;2.50;99.90
7384;DHT22;3733;47.994;8.820;2023-02-01T05:33:36;2.50;99.90
7384;DHT22;3733;47.994;8.820;2023-02-01T05:36:02;2.50;99.90
7384;DHT22;3733;47.994;8.820;2023-02-01T05:38:27;2.40;99.90
7384;DHT22;3733;47.994;8.820;2023-02-01T05:40:55;2.40;99.90
7384;DHT22;3733;47.994;8.820;2023-02-01T05:43:21;2.40;99.90
7384;DHT22;3733;47.994;8.820;2023-02-01T05:45:47;2.40;99.90
7384;DHT22;3733;47.994;8.820;2023-02-01T05:48:13;2.40;99.90
7384;DHT22;3733;47.994;8.820;2023-02-01T05:50:38;2.40;99.90
7384;DHT22;3733;47.994;8.820;2023-02-01T05:53:04;2.40;99.90
7384;DHT22;3733;47.994;8.820;2023-02-01T05:55:29;2.40;99.90
7384;DHT22;3733;47.994;8.820;2023-02-01T05:57:55;2.40;99.90
7384;DHT22;3733;47.994;8.820;2023-02-01T06:00:21;2.40;99.90
7384;DHT22;3733;47.994;8.820;2023-02-01T06:02:47;2.30;99.90
7384;DHT22;3733;47.994;8.820;2023-02-01T06:05:12;2.40;99.90
7384;DHT22;3733;47.994;8.820;2023-02-01T06:07:38;2.40;99.90
7384;DHT22;3733;47.994;8.820;2023-02-01T06:10:04;2.30;99.90
7384;DHT22;3733;47.994;8.820;2023-02-01T06:12:30;2.30;99.90
7384;DHT22;3733;47.994;8.820;2023-02-01T06:14:55;2.30;99.90
7384;DHT22;3733;47.994;8.820;2023-02-01T06:17:21;2.30;99.90
7384;DHT22;3733;47.994;8.820;2023-02-01T06:19:46;2.30;99.90
7384;DHT22;3733;47.994;8.820;2023-02-01T06:22:13;2.30;99.90
7384;DHT22;3733;47.994;8.820;2023-02-01T06:24:39;2.20;99.90
7384;DHT22;3733;47.994;8.820;2023-02-01T06:27:06;2.20;99.90
7384;DHT22;3733;47.994;8.820;2023-02-01T06:29:32;2.20;99.90
7384;DHT22;3733;47.994;8.820;2023-02-01T06:31:58;2.20;99.90
7384;DHT22;3733;47.994;8.820;2023-02-01T06:34:24;2.20;99.90
7384;DHT22;3733;47.994;8.820;2023-02-01T06:36:50;2.20;99.90
7384;DHT22;3733;47.994;8.820;2023-02-01T06:39:15;2.20;99.90
7384;DHT22;3733;47.994;8.820;2023-02-01T06:41:45;2.20;99.90
7384;DHT22;3733;47.994;8.820;2023-02-01T06:44:10;2.20;99.90
7384;DHT22;3733;47.994;8.820;2023-02-01T06:46:36;2.20;99.90
7384;DHT22;3733;47.994;8.820;2023-02-01T06:49:02;2.20;99.90
7384;DHT22;3733;47.994;8.820;2023-02-01T06:51:28;2.20;99.90
7384;DHT22;3733;47.994;8.820;2023-02-01T06:53:55;2.20;99.90
7384;DHT22;3733;47.994;8.820;2023-02-01T06:56:21;2.20;99.90
7384;DHT22;3733;47.994;8.820;2023-02-01T06:58:47;2.10;99.90
7384;DHT22;3733;47.994;8.820;2023-02-01T07:01:14;2.10;99.90
7384;DHT22;3733;47.994;8.820;2023-02-01T07:03:40;2.10;99.90
7384;DHT22;3733;47.994;8.820;2023-02-01T07:06:07;2.10;99.90
7384;DHT22;3733;47.994;8.820;2023-02-01T07:08:36;2.10;99.90
7384;DHT22;3733;47.994;8.820;2023-02-01T07:11:04;2.20;99.90
7384;DHT22;3733;47.994;8.820;2023-02-01T07:13:30;2.20;99.90
7384;DHT22;3733;47.994;8.820;2023-02-01T07:16:01;2.20;99.90
7384;DHT22;3733;47.994;8.820;2023-02-01T07:18:28;2.20;99.90
7384;DHT22;3733;47.994;8.820;2023-02-01T07:20:54;2.20;99.90
7384;DHT22;3733;47.994;8.820;2023-02-01T07:23:20;2.20;99.90
7384;DHT22;3733;47.994;8.820;2023-02-01T07:25:46;2.20;99.90
7384;DHT22;3733;47.994;8.820;2023-02-01T07:28:11;2.20;99.90
7384;DHT22;3733;47.994;8.820;2023-02-01T07:30:37;2.20;99.90
7384;DHT22;3733;47.994;8.820;2023-02-01T07:33:03;2.20;99.90
7384;DHT22;3733;47.994;8.820;2023-02-01T07:35:29;2.20;99.90
7384;DHT22;3733;47.994;8.820;2023-02-01T07:37:56;2.20;99.90
7384;DHT22;3733;47.994;8.820;2023-02-01T07:40:22;2.20;99.90
7384;DHT22;3733;47.994;8.820;2023-02-01T07:42:54;2.20;99.90
7384;DHT22;3733;47.994;8.820;2023-02-01T07:45:20;2.20;99.90
7384;DHT22;3733;47.994;8.820;2023-02-01T07:47:46;2.20;99.90
7384;DHT22;3733;47.994;8.820;2023-02-01T07:50:12;2.20;99.90
7384;DHT22;3733;47.994;8.820;2023-02-01T07:52:37;2.20;99.90
7384;DHT22;3733;47.994;8.820;2023-02-01T07:55:03;2.30;99.90
7384;DHT22;3733;47.994;8.820;2023-02-01T07:57:29;2.30;99.90
7384;DHT22;3733;47.994;8.820;2023-02-01T07:59:55;2.30;99.90
7384;DHT22;3733;47.994;8.820;2023-02-01T08:02:39;2.30;99.90
7384;DHT22;3733;47.994;8.820;2023-02-01T08:05:05;2.40;99.90
7384;DHT22;3733;47.994;8.820;2023-02-01T08:07:31;2.40;99.90
7384;DHT22;3733;47.994;8.820;2023-02-01T08:09:56;2.40;99.90
7384;DHT22;3733;47.994;8.820;2023-02-01T08:12:22;2.50;99.90
7384;DHT22;3733;47.994;8.820;2023-02-01T08:14:47;2.50;99.90
7384;DHT22;3733;47.994;8.820;2023-02-01T08:17:13;2.50;99.90
7384;DHT22;3733;47.994;8.820;2023-02-01T08:19:39;2.50;99.90
7384;DHT22;3733;47.994;8.820;2023-02-01T08:22:04;2.50;99.90
7384;DHT22;3733;47.994;8.820;2023-02-01T08:24:33;2.50;99.90
7384;DHT22;3733;47.994;8.820;2023-02-01T08:27:01;2.50;99.90
7384;DHT22;3733;47.994;8.820;2023-02-01T08:29:27;2.50;99.90
7384;DHT22;3733;47.994;8.820;2023-02-01T08:31:53;2.50;99.90
7384;DHT22;3733;47.994;8.820;2023-02-01T08:34:19;2.60;99.90
7384;DHT22;3733;47.994;8.820;2023-02-01T08:36:45;2.60;99.90
7384;DHT22;3733;47.994;8.820;2023-02-01T08:39:11;2.60;99.90
7384;DHT22;3733;47.994;8.820;2023-02-01T08:41:37;2.60;99.90
7384;DHT22;3733;47.994;8.820;2023-02-01T08:44:03;2.60;99.90
7384;DHT22;3733;47.994;8.820;2023-02-01T08:46:29;2.60;99.90
7384;DHT22;3733;47.994;8.820;2023-02-01T08:48:54;2.60;99.90
7384;DHT22;3733;47.994;8.820;2023-02-01T08:51:22;2.60;99.90
7384;DHT22;3733;47.994;8.820;2023-02-01T08:53:48;2.60;99.90
7384;DHT22;3733;47.994;8.820;2023-02-01T08:56:15;2.60;99.90
7384;DHT22;3733;47.994;8.820;2023-02-01T08:58:42;2.60;99.90
7384;DHT22;3733;47.994;8.820;2023-02-01T09:01:13;2.50;99.90
7384;DHT22;3733;47.994;8.820;2023-02-01T09:03:39;2.50;99.90
7384;DHT22;3733;47.994;8.820;2023-02-01T09:06:07;2.60;99.90
7384;DHT22;3733;47.994;8.820;2023-02-01T09:08:34;2.60;99.90
7384;DHT22;3733;47.994;8.820;2023-02-01T09:11:01;2.60;99.90
7384;DHT22;3733;47.994;8.820;2023-02-01T09:13:27;2.60;99.90
7384;DHT22;3733;47.994;8.820;2023-02-01T09:15:53;2.60;99.90
7384;DHT22;3733;47.994;8.820;2023-02-01T09:18:18;2.60;99.90
7384;DHT22;3733;47.994;8.820;2023-02-01T09:20:44;2.60;99.90
7384;DHT22;3733;47.994;8.820;2023-02-01T09:23:10;2.60;99.90
7384;DHT22;3733;47.994;8.820;2023-02-01T09:25:37;2.70;99.90
7384;DHT22;3733;47.994;8.820;2023-02-01T09:28:03;2.70;99.90
7384;DHT22;3733;47.994;8.820;2023-02-01T09:30:32;2.80;99.90
7384;DHT22;3733;47.994;8.820;2023-02-01T09:32:57;2.80;99.90
7384;DHT22;3733;47.994;8.820;2023-02-01T09:35:23;2.90;99.90
7384;DHT22;3733;47.994;8.820;2023-02-01T09:37:49;2.90;99.90
7384;DHT22;3733;47.994;8.820;2023-02-01T09:40:15;2.90;99.90
7384;DHT22;3733;47.994;8.820;2023-02-01T09:48:03;2.90;99.90
7384;DHT22;3733;47.994;8.820;2023-02-01T09:50:43;2.90;99.90
7384;DHT22;3733;47.994;8.820;2023-02-01T09:53:23;2.90;99.90
7384;DHT22;3733;47.994;8.820;2023-02-01T09:55:53;2.90;99.90
7384;DHT22;3733;47.994;8.820;2023-02-01T09:58:47;2.90;99.90
7384;DHT22;3733;47.994;8.820;2023-02-01T10:01:24;2.90;99.90
7384;DHT22;3733;47.994;8.820;2023-02-01T10:04:02;2.90;99.90
7384;DHT22;3733;47.994;8.820;2023-02-01T10:06:55;2.90;99.90
7384;DHT22;3733;47.994;8.820;2023-02-01T10:26:04;3.10;99.90
7384;DHT22;3733;47.994;8.820;2023-02-01T10:28:34;3.10;99.90
7384;DHT22;3733;47.994;8.820;2023-02-01T10:31:02;3.10;99.90
7384;DHT22;3733;47.994;8.820;2023-02-01T10:33:39;3.20;99.90
7384;DHT22;3733;47.994;8.820;2023-02-01T10:36:35;3.20;99.90
7384;DHT22;3733;47.994;8.820;2023-02-01T10:39:05;3.10;99.90
7384;DHT22;3733;47.994;8.820;2023-02-01T10:41:35;3.10;99.90
7384;DHT22;3733;47.994;8.820;2023-02-01T10:44:03;3.10;99.90
7384;DHT22;3733;47.994;8.820;2023-02-01T10:46:31;3.10;99.90
7384;DHT22;3733;47.994;8.820;2023-02-01T10:49:00;3.10;99.90
7384;DHT22;3733;47.994;8.820;2023-02-01T10:51:36;3.10;99.90
7384;DHT22;3733;47.994;8.820;2023-02-01T10:54:14;3.10;99.90
7384;DHT22;3733;47.994;8.820;2023-02-01T10:56:43;3.10;99.90
7384;DHT22;3733;47.994;8.820;2023-02-01T10:59:24;3.10;99.90
7384;DHT22;3733;47.994;8.820;2023-02-01T11:01:57;3.10;99.90
7384;DHT22;3733;47.994;8.820;2023-02-01T11:04:24;3.10;99.90
7384;DHT22;3733;47.994;8.820;2023-02-01T11:06:54;3.10;99.90
7384;DHT22;3733;47.994;8.820;2023-02-01T11:09:31;3.10;99.90
7384;DHT22;3733;47.994;8.820;2023-02-01T11:11:59;3.10;99.90
7384;DHT22;3733;47.994;8.820;2023-02-01T11:17:03;3.10;99.90
7384;DHT22;3733;47.994;8.820;2023-02-01T11:19:37;3.20;99.90
7384;DHT22;3733;47.994;8.820;2023-02-01T11:22:04;3.20;99.90
7384;DHT22;3733;47.994;8.820;2023-02-01T11:24:32;3.20;99.90
7384;DHT22;3733;47.994;8.820;2023-02-01T11:27:02;3.30;99.90
7384;DHT22;3733;47.994;8.820;2023-02-01T11:29:40;3.30;99.90
7384;DHT22;3733;47.994;8.820;2023-02-01T11:32:08;3.30;99.90
7384;DHT22;3733;47.994;8.820;2023-02-01T11:34:57;3.40;99.90
7384;DHT22;3733;47.994;8.820;2023-02-01T11:37:33;3.40;99.90
7384;DHT22;3733;47.994;8.820;2023-02-01T11:40:03;3.50;99.90
7384;DHT22;3733;47.994;8.820;2023-02-01T11:42:29;3.50;99.90
7384;DHT22;3733;47.994;8.820;2023-02-01T11:45:25;3.70;99.90
7384;DHT22;3733;47.994;8.820;2023-02-01T11:47:55;3.70;99.90
7384;DHT22;3733;47.994;8.820;2023-02-01T11:55:53;3.90;99.90
7384;DHT22;3733;47.994;8.820;2023-02-01T12:01:10;3.90;99.90
7384;DHT22;3733;47.994;8.820;2023-02-01T12:07:04;3.90;99.90
7384;DHT22;3733;47.994;8.820;2023-02-01T12:17:42;3.80;99.90
7384;DHT22;3733;47.994;8.820;2023-02-01T12:44:39;3.70;99.90
7384;DHT22;3733;47.994;8.820;2023-02-01T12:47:16;3.80;99.90
7384;DHT22;3733;47.994;8.820;2023-02-01T12:52:49;3.80;97.60
7384;DHT22;3733;47.994;8.820;2023-02-01T12:57:45;3.90;93.70
7384;DHT22;3733;47.994;8.820;2023-02-01T13:00:27;3.90;95.00
7384;DHT22;3733;47.994;8.820;2023-02-01T13:03:15;3.90;92.70
7384;DHT22;3733;47.994;8.820;2023-02-01T13:06:02;3.90;92.00
7384;DHT22;3733;47.994;8.820;2023-02-01T13:08:45;3.90;91.70
7384;DHT22;3733;47.994;8.820;2023-02-01T13:11:36;3.90;90.90
7384;DHT22;3733;47.994;8.820;2023-02-01T13:14:18;3.90;91.20
7384;DHT22;3733;47.994;8.820;2023-02-01T13:16:48;3.90;91.70
7384;DHT22;3733;47.994;8.820;2023-02-01T13:19:26;3.80;91.80
7384;DHT22;3733;47.994;8.820;2023-02-01T13:22:05;3.90;89.50
7384;DHT22;3733;47.994;8.820;2023-02-01T13:27:05;3.90;90.50
7384;DHT22;3733;47.994;8.820;2023-02-01T13:29:31;3.90;90.00
7384;DHT22;3733;47.994;8.820;2023-02-01T13:34:59;4.00;87.20
7384;DHT22;3733;47.994;8.820;2023-02-01T13:38:06;3.90;85.30
7384;DHT22;3733;47.994;8.820;2023-02-01T13:40:48;4.00;83.70
7384;DHT22;3733;47.994;8.820;2023-02-01T13:43:24;4.00;87.10
7384;DHT22;3733;47.994;8.820;2023-02-01T13:45:57;4.10;84.00
7384;DHT22;3733;47.994;8.820;2023-02-01T13:50:57;4.20;79.10
7384;DHT22;3733;47.994;8.820;2023-02-01T13:53:30;4.10;78.90
7384;DHT22;3733;47.994;8.820;2023-02-01T13:56:04;4.10;78.60
7384;DHT22;3733;47.994;8.820;2023-02-01T13:58:35;4.10;75.70
7384;DHT22;3733;47.994;8.820;2023-02-01T14:01:31;4.10;76.90
7384;DHT22;3733;47.994;8.820;2023-02-01T14:03:59;4.10;77.60
7384;DHT22;3733;47.994;8.820;2023-02-01T14:19:28;4.00;77.30
7384;DHT22;3733;47.994;8.820;2023-02-01T14:21:59;4.00;77.10
7384;DHT22;3733;47.994;8.820;2023-02-01T14:24:30;4.00;77.90
7384;DHT22;3733;47.994;8.820;2023-02-01T14:26:59;4.00;79.50
7384;DHT22;3733;47.994;8.820;2023-02-01T14:29:37;4.00;80.10
7384;DHT22;3733;47.994;8.820;2023-02-01T14:37:12;4.00;79.80
7384;DHT22;3733;47.994;8.820;2023-02-01T14:42:50;4.00;77.50
7384;DHT22;3733;47.994;8.820;2023-02-01T14:55:41;4.00;81.70
7384;DHT22;3733;47.994;8.820;2023-02-01T15:15:16;3.90;76.80
7384;DHT22;3733;47.994;8.820;2023-02-01T15:17:50;4.00;75.10
7384;DHT22;3733;47.994;8.820;2023-02-01T15:22:43;4.00;74.00
7384;DHT22;3733;47.994;8.820;2023-02-01T15:25:31;3.90;74.70
7384;DHT22;3733;47.994;8.820;2023-02-01T15:27:57;3.90;75.10
7384;DHT22;3733;47.994;8.820;2023-02-01T15:30:34;3.90;74.30
7384;DHT22;3733;47.994;8.820;2023-02-01T15:33:15;3.80;76.00
7384;DHT22;3733;47.994;8.820;2023-02-01T15:35:44;3.80;76.80
7384;DHT22;3733;47.994;8.820;2023-02-01T15:46:38;3.70;78.70
7384;DHT22;3733;47.994;8.820;2023-02-01T15:49:05;3.70;79.00
7384;DHT22;3733;47.994;8.820;2023-02-01T15:51:44;3.70;80.10
7384;DHT22;3733;47.994;8.820;2023-02-01T15:54:27;3.70;79.90
7384;DHT22;3733;47.994;8.820;2023-02-01T15:56:58;3.70;79.40
7384;DHT22;3733;47.994;8.820;2023-02-01T15:59:35;3.60;80.70
7384;DHT22;3733;47.994;8.820;2023-02-01T16:02:02;3.60;80.40
7384;DHT22;3733;47.994;8.820;2023-02-01T16:04:29;3.60;81.30
7384;DHT22;3733;47.994;8.820;2023-02-01T16:07:03;3.60;82.10
7384;DHT22;3733;47.994;8.820;2023-02-01T16:09:57;3.60;82.10
7384;DHT22;3733;47.994;8.820;2023-02-01T16:12:45;3.60;82.50
7384;DHT22;3733;47.994;8.820;2023-02-01T16:15:11;3.60;82.00
7384;DHT22;3733;47.994;8.820;2023-02-01T16:17:37;3.60;82.50
7384;DHT22;3733;47.994;8.820;2023-02-01T16:20:03;3.60;83.10
7384;DHT22;3733;47.994;8.820;2023-02-01T16:22:29;3.60;84.20
7384;DHT22;3733;47.994;8.820;2023-02-01T16:24:54;3.50;84.80
7384;DHT22;3733;47.994;8.820;2023-02-01T16:27:20;3.50;84.90
7384;DHT22;3733;47.994;8.820;2023-02-01T16:29:48;3.50;85.50
7384;DHT22;3733;47.994;8.820;2023-02-01T16:32:19;3.50;85.50
7384;DHT22;3733;47.994;8.820;2023-02-01T16:34:45;3.50;84.70
7384;DHT22;3733;47.994;8.820;2023-02-01T16:37:14;3.50;84.20
7384;DHT22;3733;47.994;8.820;2023-02-01T16:39:41;3.50;84.40
7384;DHT22;3733;47.994;8.820;2023-02-01T16:42:13;3.50;83.90
7384;DHT22;3733;47.994;8.820;2023-02-01T16:44:40;3.50;85.10
7384;DHT22;3733;47.994;8.820;2023-02-01T16:47:16;3.50;84.80
7384;DHT22;3733;47.994;8.820;2023-02-01T16:49:42;3.50;85.50
7384;DHT22;3733;47.994;8.820;2023-02-01T16:52:14;3.50;85.70
7384;DHT22;3733;47.994;8.820;2023-02-01T16:54:44;3.40;85.80
7384;DHT22;3733;47.994;8.820;2023-02-01T16:57:14;3.40;86.50
7384;DHT22;3733;47.994;8.820;2023-02-01T16:59:41;3.40;87.00
7384;DHT22;3733;47.994;8.820;2023-02-01T17:02:11;3.40;87.20
7384;DHT22;3733;47.994;8.820;2023-02-01T17:04:37;3.40;87.30
7384;DHT22;3733;47.994;8.820;2023-02-01T17:07:03;3.40;87.00
7384;DHT22;3733;47.994;8.820;2023-02-01T17:09:35;3.40;86.80
7384;DHT22;3733;47.994;8.820;2023-02-01T17:12:02;3.40;86.90
7384;DHT22;3733;47.994;8.820;2023-02-01T17:14:30;3.40;86.10
7384;DHT22;3733;47.994;8.820;2023-02-01T17:16:56;3.40;87.60
7384;DHT22;3733;47.994;8.820;2023-02-01T17:19:22;3.40;87.70
7384;DHT22;3733;47.994;8.820;2023-02-01T17:21:50;3.40;87.50
7384;DHT22;3733;47.994;8.820;2023-02-01T17:24:19;3.40;88.30
7384;DHT22;3733;47.994;8.820;2023-02-01T17:26:45;3.40;87.10
7384;DHT22;3733;47.994;8.820;2023-02-01T17:29:11;3.40;87.60
7384;DHT22;3733;47.994;8.820;2023-02-01T17:31:44;3.40;87.30
7384;DHT22;3733;47.994;8.820;2023-02-01T17:34:11;3.40;87.70
7384;DHT22;3733;47.994;8.820;2023-02-01T17:36:37;3.30;87.50
7384;DHT22;3733;47.994;8.820;2023-02-01T17:39:04;3.40;87.90
7384;DHT22;3733;47.994;8.820;2023-02-01T17:41:30;3.30;88.50
7384;DHT22;3733;47.994;8.820;2023-02-01T17:43:55;3.30;88.30
7384;DHT22;3733;47.994;8.820;2023-02-01T17:46:21;3.40;88.20
7384;DHT22;3733;47.994;8.820;2023-02-01T17:48:52;3.30;88.50
7384;DHT22;3733;47.994;8.820;2023-02-01T17:51:19;3.30;89.30
7384;DHT22;3733;47.994;8.820;2023-02-01T17:53:46;3.30;90.00
7384;DHT22;3733;47.994;8.820;2023-02-01T17:56:17;3.40;90.20
7384;DHT22;3733;47.994;8.820;2023-02-01T17:58:44;3.40;90.40
7384;DHT22;3733;47.994;8.820;2023-02-01T18:01:12;3.40;90.50
7384;DHT22;3733;47.994;8.820;2023-02-01T18:03:39;3.40;90.70
7384;DHT22;3733;47.994;8.820;2023-02-01T18:06:09;3.40;90.80
7384;DHT22;3733;47.994;8.820;2023-02-01T18:08:35;3.40;91.00
7384;DHT22;3733;47.994;8.820;2023-02-01T18:11:01;3.40;91.10
7384;DHT22;3733;47.994;8.820;2023-02-01T18:13:28;3.40;91.30
7384;DHT22;3733;47.994;8.820;2023-02-01T18:15:54;3.40;91.40
7384;DHT22;3733;47.994;8.820;2023-02-01T18:18:20;3.40;91.60
7384;DHT22;3733;47.994;8.820;2023-02-01T18:20:47;3.40;91.80
7384;DHT22;3733;47.994;8.820;2023-02-01T18:23:19;3.40;92.00
7384;DHT22;3733;47.994;8.820;2023-02-01T18:25:46;3.40;92.00
7384;DHT22;3733;47.994;8.820;2023-02-01T18:28:13;3.40;92.00
7384;DHT22;3733;47.994;8.820;2023-02-01T18:30:45;3.40;91.50
7384;DHT22;3733;47.994;8.820;2023-02-01T18:33:16;3.40;91.50
7384;DHT22;3733;47.994;8.820;2023-02-01T18:35:42;3.40;91.80
7384;DHT22;3733;47.994;8.820;2023-02-01T18:38:09;3.40;91.30
7384;DHT22;3733;47.994;8.820;2023-02-01T18:40:38;3.40;91.80
7384;DHT22;3733;47.994;8.820;2023-02-01T18:43:05;3.40;91.20
7384;DHT22;3733;47.994;8.820;2023-02-01T18:45:41;3.40;91.20
7384;DHT22;3733;47.994;8.820;2023-02-01T18:48:08;3.40;91.20
7384;DHT22;3733;47.994;8.820;2023-02-01T18:50:37;3.40;91.60
7384;DHT22;3733;47.994;8.820;2023-02-01T18:53:05;3.40;91.80
7384;DHT22;3733;47.994;8.820;2023-02-01T18:55:32;3.40;91.70
7384;DHT22;3733;47.994;8.820;2023-02-01T18:57:59;3.40;91.80
7384;DHT22;3733;47.994;8.820;2023-02-01T19:00:25;3.40;93.10
7384;DHT22;3733;47.994;8.820;2023-02-01T19:02:51;3.40;91.60
7384;DHT22;3733;47.994;8.820;2023-02-01T19:05:17;3.40;91.00
7384;DHT22;3733;47.994;8.820;2023-02-01T19:07:43;3.40;90.30
7384;DHT22;3733;47.994;8.820;2023-02-01T19:10:27;3.50;90.50
7384;DHT22;3733;47.994;8.820;2023-02-01T19:12:53;3.40;90.90
7384;DHT22;3733;47.994;8.820;2023-02-01T19:15:24;3.50;90.10
7384;DHT22;3733;47.994;8.820;2023-02-01T19:17:51;3.40;90.50
7384;DHT22;3733;47.994;8.820;2023-02-01T19:20:20;3.40;89.10
7384;DHT22;3733;47.994;8.820;2023-02-01T19:22:46;3.40;89.70